Latest Weather Observations for Maryborough

IDQ60801

Issued at 3:35 pm EST Friday 22 August 2014 (issued every 30 minutes, with the page automatically refreshed every 10 minutes)

About weather observations | Map of weather stations | Latest weather observations for QLD | Other Formats
Station Details ID: 040126 Name: MARYBOROUGH Lat: -25.52 Lon: 152.72 Height: 10.28 m
Data from the previous 72 hours. | See also: Recent months at Maryborough
Date/Time
EST
Temp
°C
App
Temp
°C
Dew
Point
Rel
Hum
%
Delta-T
°C
Wind Press
QNH
hPa
Press
MSL
hPa
Rain
since 9 am
mm
Dir
 
Spd
km/h
Gust
km/h
Spd
kts
Gust
kts
22/03:30pm 15.5 12.4 14.4 93 0.6 S 24 33 13 18 1020.8 - 30.8
22/03:10pm 15.5 12.0 14.4 93 0.6 S 26 35 14 19 1020.7 - 30.2
22/03:04pm 15.5 11.9 14.2 92 0.7 S 26 35 14 19 1020.8 - 30.2
22/03:00pm 15.6 12.5 14.5 93 0.6 S 24 37 13 20 1020.8 1020.8 30.2
22/02:30pm 15.8 13.6 14.8 94 0.6 SSW 20 41 11 22 1020.6 - 23.2
22/02:00pm 16.1 14.0 15.3 95 0.5 SSW 20 26 11 14 1020.9 - 11.0
22/01:37pm 16.8 15.8 15.7 93 0.6 S 15 22 8 12 1021.0 - 6.0
22/01:30pm 16.9 15.5 15.6 92 0.8 S 17 24 9 13 1021.1 - 5.2
22/01:07pm 17.3 16.6 16.3 94 0.6 S 15 30 8 16 1021.1 - 5.2
22/01:00pm 17.4 16.3 16.3 93 0.7 S 17 24 9 13 1021.2 - 5.2
22/12:30pm 17.0 16.0 15.7 92 0.8 S 15 26 8 14 1021.8 - 3.4
22/12:27pm 17.1 15.7 15.6 91 0.9 S 17 26 9 14 1021.8 - 3.0
22/12:25pm 17.0 15.5 15.3 90 1.0 S 17 26 9 14 1021.9 - 3.0
22/12:18pm 17.3 15.5 15.6 90 1.0 S 19 28 10 15 1021.9 - 3.0
22/12:00pm 17.2 14.9 15.7 91 0.9 S 22 30 12 16 1021.9 1021.9 3.0
22/11:30am 16.9 14.9 15.6 92 0.8 S 20 30 11 16 1022.5 - 2.8
22/11:00am 16.5 14.1 15.4 93 0.6 SSW 22 30 12 16 1022.9 - 2.6
22/10:30am 16.4 14.3 15.1 92 0.8 S 20 28 11 15 1023.3 - 1.4
22/10:26am 16.4 14.3 15.1 92 0.8 S 20 28 11 15 1023.1 - 1.4
22/10:08am 16.2 14.0 14.9 92 0.7 S 20 32 11 17 1023.1 - 1.0
22/10:00am 16.4 14.3 15.1 92 0.8 S 20 30 11 16 1023.1 - 0.2
22/09:30am 16.4 14.5 15.3 93 0.6 S 19 28 10 15 1023.4 - 0.0
22/09:00am 15.6 13.5 14.6 94 0.6 S 19 26 10 14 1023.3 1023.3 3.4
22/08:30am 15.1 12.2 14.0 93 0.6 S 22 32 12 17 1023.2 - 3.0
22/08:00am 15.1 12.6 14.0 93 0.6 S 20 28 11 15 1023.0 - 3.0
22/07:30am 15.0 12.6 13.7 92 0.7 S 19 28 10 15 1022.8 - 2.8
22/07:00am 14.8 12.1 13.5 92 0.7 S 20 28 11 15 1022.7 - 2.8
22/06:41am 14.8 11.3 13.3 91 0.8 S 24 33 13 18 1022.4 - 2.8
22/06:30am 14.8 12.0 13.3 91 0.8 S 20 30 11 16 1022.1 - 2.8
22/06:07am 14.6 12.0 13.3 92 0.7 S 19 35 10 19 1021.8 - 2.8
22/06:00am 14.5 12.3 13.4 93 0.6 S 17 24 9 13 1021.7 1021.7 2.8
22/05:30am 14.4 11.3 13.3 93 0.6 S 22 28 12 15 1021.2 - 2.6
22/05:18am 14.5 11.7 13.2 92 0.7 SSW 20 30 11 16 1021.2 - 2.6
22/05:00am 14.7 12.5 13.4 92 0.7 SSW 17 24 9 13 1021.2 - 2.6
22/04:35am 14.7 12.9 13.4 92 0.7 SSW 15 20 8 11 1021.3 - 2.6
22/04:30am 14.7 12.5 13.4 92 0.7 SSW 17 26 9 14 1021.2 - 2.6
22/04:00am 14.7 12.2 13.6 93 0.6 SSW 19 24 10 13 1021.1 - 2.4
22/03:30am 14.8 11.8 13.8 94 0.6 SSW 22 30 12 16 1021.2 - 2.2
22/03:28am 14.8 11.8 13.8 94 0.6 SSW 22 30 12 16 1021.1 - 2.2
22/03:22am 14.8 11.8 13.8 94 0.6 S 22 32 12 17 1021.1 - 1.8
22/03:01am 14.7 11.7 13.7 94 0.6 S 22 28 12 15 1021.3 - 1.4
22/03:00am 14.8 12.2 13.8 94 0.6 SSW 20 28 11 15 1021.3 1021.3 1.4
22/02:48am 14.8 11.8 13.7 93 0.6 S 22 33 12 18 1021.4 - 1.2
22/02:30am 14.9 11.9 13.8 93 0.6 S 22 30 12 16 1021.7 - 0.6
22/02:09am 15.1 12.2 14.0 93 0.6 SSW 22 28 12 15 1021.8 - 0.4
22/02:00am 15.2 11.9 14.1 93 0.6 SSW 24 30 13 16 1021.8 - 0.4
22/01:54am 15.2 12.3 14.1 93 0.6 SSW 22 30 12 16 1021.7 - 0.4
22/01:30am 15.4 13.5 14.3 93 0.6 SSW 17 26 9 14 1022.0 - 0.2
22/01:17am 15.5 14.0 14.2 92 0.7 S 15 22 8 12 1022.1 - 0.2
22/01:01am 15.5 13.6 14.2 92 0.7 S 17 24 9 13 1022.3 - 0.2
22/01:00am 15.5 13.5 14.0 91 0.8 S 17 24 9 13 1022.4 - 0.2
22/12:30am 15.7 14.1 13.9 89 1.0 S 15 22 8 12 1022.2 - 0.0
22/12:07am 15.8 13.8 13.8 88 1.1 S 17 20 9 11 1022.3 - 0.0
22/12:00am 15.7 13.3 13.7 88 1.1 S 19 26 10 14 1022.2 1022.2 0.0
 
Date/Time
EST
Temp
°C
App
Temp
°C
Dew
Point
Rel
Hum
%
Delta-T
°C
Wind Press
QNH
hPa
Press
MSL
hPa
Rain
since 9 am
mm
Dir
 
Spd
km/h
Gust
km/h
Spd
kts
Gust
kts
21/11:58pm 15.7 13.3 13.7 88 1.1 S 19 26 10 14 1022.2 - 0.0
21/11:30pm 15.9 13.5 13.7 87 1.2 SSW 19 26 10 14 1022.3 - 0.0
21/11:00pm 15.8 13.7 13.5 86 1.3 S 17 22 9 12 1022.3 - 0.0
21/10:57pm 15.9 13.7 13.4 85 1.4 S 17 22 9 12 1022.3 - 0.0
21/10:30pm 16.4 13.2 13.1 81 1.8 S 22 32 12 17 1022.3 - 0.0
21/10:00pm 16.8 13.7 13.3 80 2.0 S 22 32 12 17 1022.2 - 0.0
21/09:30pm 16.6 13.9 12.9 79 2.1 S 19 28 10 15 1021.8 - 0.0
21/09:00pm 17.0 14.7 12.9 77 2.3 S 17 24 9 13 1022.1 1022.1 0.0
21/08:30pm 17.3 15.0 13.0 76 2.4 S 17 24 9 13 1021.8 - 0.0
21/08:00pm 17.1 15.6 13.0 77 2.3 SSE 13 19 7 10 1021.8 - 0.0
21/07:30pm 17.5 15.7 13.2 76 2.4 SE 15 24 8 13 1021.5 - 0.0
21/07:00pm 17.9 15.2 13.0 73 2.7 SSE 19 32 10 17 1021.3 - 0.0
21/06:30pm 17.9 15.2 12.8 72 2.9 S 19 28 10 15 1020.5 - 0.0
21/06:00pm 18.4 15.0 12.6 69 3.2 SSE 22 33 12 18 1020.5 1020.5 0.0
21/05:30pm 18.7 15.9 12.7 68 3.4 SSE 19 30 10 16 1020.4 - 0.0
21/05:00pm 19.2 15.7 12.2 64 3.9 SSE 22 39 12 21 1019.9 - 0.0
21/04:30pm 20.0 16.6 12.5 62 4.2 SSE 22 32 12 17 1019.6 - 0.0
21/04:00pm 20.0 16.7 12.7 63 4.1 SE 22 35 12 19 1019.5 - 0.0
21/03:30pm 20.4 15.5 12.4 60 4.5 SE 30 41 16 22 1019.2 - 0.0
21/03:00pm 20.6 16.0 12.3 59 4.6 SE 28 37 15 20 1019.4 1019.4 0.0
21/02:30pm 20.5 16.2 12.0 58 4.7 SSE 26 37 14 20 1019.4 - 0.0
21/02:00pm 21.0 16.5 12.7 59 4.7 SE 28 37 15 20 1019.4 - 0.0
21/01:30pm 21.0 16.7 12.2 57 4.9 SE 26 37 14 20 1019.7 - 0.0
21/01:00pm 22.0 18.2 12.5 54 5.4 SE 24 39 13 21 1019.8 - 0.0
21/12:30pm 22.2 18.6 13.0 56 5.3 SE 24 35 13 19 1020.1 - 0.0
21/12:00pm 21.7 17.5 12.5 56 5.2 SE 26 37 14 20 1020.5 1020.5 0.0
21/11:30am 22.1 18.0 12.6 55 5.4 SSE 26 33 14 18 1020.8 - 0.0
21/11:00am 22.0 17.5 12.5 54 5.4 SSE 28 37 15 20 1021.1 - 0.0
21/10:30am 21.3 17.0 12.2 56 5.1 SE 26 35 14 19 1021.4 - 0.0
21/10:00am 19.9 15.3 12.4 62 4.2 SE 28 41 15 22 1021.5 - 0.0
21/09:30am 19.2 15.3 12.0 63 4.0 SSE 24 32 13 17 1021.8 - 0.0
21/09:00am 18.4 15.3 12.2 67 3.4 S 20 28 11 15 1021.9 1021.9 0.0
21/08:30am 17.0 13.9 11.7 71 2.9 SSE 19 24 10 13 1021.8 - 0.0
21/08:00am 16.1 13.6 12.3 78 2.1 S 17 24 9 13 1021.6 - 0.0
21/07:30am 14.2 12.6 11.5 84 1.4 S 11 22 6 12 1021.5 - 0.0
21/07:00am 14.2 12.7 11.9 86 1.2 S 11 17 6 9 1021.2 - 0.0
21/06:30am 13.9 12.3 11.6 86 1.2 S 11 17 6 9 1020.9 - 0.0
21/06:00am 13.9 11.6 11.8 87 1.1 S 15 20 8 11 1020.6 1020.6 0.0
21/05:30am 13.4 11.4 11.6 89 1.0 S 13 17 7 9 1020.4 - 0.0
21/05:00am 13.7 11.8 11.9 89 1.0 S 13 19 7 10 1020.3 - 0.0
21/04:30am 13.8 11.6 12.0 89 1.0 S 15 20 8 11 1020.1 - 0.0
21/04:00am 13.4 11.5 11.8 90 0.9 S 13 17 7 9 1019.9 - 0.0
21/03:30am 13.6 12.1 12.0 90 0.9 S 11 13 6 7 1020.0 - 0.0
21/03:00am 13.5 11.6 11.9 90 0.9 S 13 17 7 9 1020.0 1020.0 0.0
21/02:30am 14.0 12.3 12.4 90 0.9 SSW 13 19 7 10 1020.1 - 0.0
21/02:00am 13.7 11.6 12.3 91 0.8 S 15 20 8 11 1020.4 - 0.0
21/01:30am 13.3 11.7 11.7 90 0.9 S 11 15 6 8 1020.5 - 0.0
21/01:00am 13.6 11.8 12.0 90 0.9 S 13 17 7 9 1020.6 - 0.0
21/12:30am 13.8 11.6 12.2 90 0.9 SSW 15 19 8 10 1020.6 - 0.0
21/12:00am 13.6 11.8 12.2 91 0.8 SSW 13 15 7 8 1020.6 1020.6 0.0
 
Date/Time
EST
Temp
°C
App
Temp
°C
Dew
Point
Rel
Hum
%
Delta-T
°C
Wind Press
QNH
hPa
Press
MSL
hPa
Rain
since 9 am
mm
Dir
 
Spd
km/h
Gust
km/h
Spd
kts
Gust
kts
20/11:30pm 13.5 11.6 11.9 90 0.9 S 13 17 7 9 1020.6 - 0.0
20/11:00pm 13.2 11.6 11.4 89 1.0 S 11 13 6 7 1020.9 - 0.0
20/10:30pm 13.6 12.5 11.8 89 1.0 S 9 11 5 6 1021.1 - 0.0
20/10:00pm 13.6 12.0 11.5 87 1.1 SSW 11 13 6 7 1021.1 - 0.0
20/09:30pm 14.1 12.9 11.6 85 1.3 S 9 11 5 6 1021.2 - 0.0
20/09:00pm 14.4 13.2 11.7 84 1.4 S 9 11 5 6 1021.1 1021.1 0.0
20/08:30pm 14.9 13.8 11.9 82 1.6 S 9 11 5 6 1021.1 - 0.0
20/08:00pm 15.5 14.4 11.9 79 2.0 SSE 9 13 5 7 1021.1 - 0.0
20/07:30pm 15.6 14.2 12.2 80 1.9 SSE 11 15 6 8 1020.8 - 0.0
20/07:00pm 15.7 14.6 11.9 78 2.1 SSE 9 11 5 6 1020.5 - 0.0
20/06:30pm 16.0 14.9 12.0 77 2.2 SSE 9 11 5 6 1020.1 - 0.0
20/06:00pm 16.1 14.5 11.5 74 2.5 ESE 11 15 6 8 1019.8 1019.8 0.0
20/05:30pm 17.6 14.5 11.6 68 3.3 ESE 19 28 10 15 1019.2 - 0.0
20/05:00pm 18.8 15.6 11.9 64 3.8 ESE 20 30 11 16 1018.7 - 0.0
20/04:30pm 19.8 15.8 11.8 60 4.4 ESE 24 35 13 19 1018.1 - 0.0
20/04:00pm 20.5 16.1 11.7 57 4.9 ESE 26 33 14 18 1017.6 - 0.0
20/03:30pm 21.1 17.0 11.4 54 5.4 ESE 24 32 13 17 1017.4 - 0.0
20/03:00pm 22.2 18.2 11.9 52 5.8 ESE 24 32 13 17 1017.2 1017.2 0.0
20/02:30pm 22.4 18.8 11.8 51 6.0 SE 22 30 12 16 1017.1 - 0.0
20/02:00pm 22.3 19.5 11.4 50 6.1 SE 17 26 9 14 1017.3 - 0.0
20/01:30pm 21.8 18.7 10.3 48 6.3 SE 17 28 9 15 1017.5 - 0.0
20/01:00pm 22.4 19.4 10.5 47 6.5 ESE 17 28 9 15 1017.7 - 0.0
20/12:30pm 22.3 19.5 10.1 46 6.6 SSE 15 24 8 13 1018.0 - 0.0
20/12:00pm 22.1 19.8 10.6 48 6.3 SSE 13 26 7 14 1018.5 1018.5 0.0
20/11:30am 21.3 18.3 10.5 50 5.9 ESE 17 24 9 13 1018.8 - 0.0
20/11:00am 21.6 18.8 10.1 48 6.2 SE 15 24 8 13 1019.1 - 0.0
20/10:30am 20.9 17.4 10.1 50 5.8 SSE 19 28 10 15 1019.3 - 0.0
20/10:00am 20.0 16.1 9.6 51 5.5 SE 20 26 11 14 1019.5 - 0.0
20/09:30am 18.8 17.3 10.4 58 4.5 S 9 13 5 7 1019.8 - 0.0
20/09:00am 16.8 15.0 9.5 62 3.8 S 9 15 5 8 1019.9 1019.9 0.0
20/08:30am 15.7 13.4 9.1 65 3.4 S 11 15 6 8 1019.7 - 0.0
20/08:00am 14.6 13.1 9.2 70 2.8 S 7 11 4 6 1019.5 - 0.0
20/07:30am 12.7 11.2 9.0 78 1.9 SSW 7 13 4 7 1019.3 - 0.0
20/07:00am 9.7 8.8 7.8 88 0.9 S 2 6 1 3 1019.1 - 0.0
20/06:30am 7.9 5.9 6.2 89 0.8 SW 6 7 3 4 1018.7 - 0.0
20/06:00am 8.6 7.8 6.6 87 0.9 CALM 0 0 0 0 1018.3 1018.3 0.0
20/05:30am 10.1 8.6 6.8 80 1.6 WSW 4 7 2 4 1017.8 - 0.0
20/05:00am 10.7 8.0 7.2 79 1.7 SW 11 13 6 7 1017.2 - 0.0
20/04:30am 10.9 8.5 6.8 76 1.9 SW 9 11 5 6 1016.9 - 0.0
20/04:00am 10.7 7.5 7.0 78 1.8 SW 13 15 7 8 1016.7 - 0.0
20/03:30am 9.9 7.3 6.2 78 1.7 SW 9 11 5 6 1016.6 - 0.0
20/03:00am 10.4 8.4 6.9 79 1.7 WSW 7 11 4 6 1016.6 1016.6 0.0
20/02:30am 9.8 7.1 7.2 84 1.2 SW 11 13 6 7 1016.7 - 0.0
20/02:00am 8.4 6.2 6.0 85 1.1 SSE 7 11 4 6 1016.7 - 0.0
20/01:30am 9.0 6.5 6.6 85 1.1 ESE 9 11 5 6 1017.1 - 0.0
20/01:00am 8.4 6.2 6.0 85 1.1 SW 7 11 4 6 1017.2 - 0.0
20/12:30am 8.9 8.1 6.7 86 1.0 CALM 0 6 0 3 1017.1 - 0.0
20/12:00am 9.7 7.7 7.1 84 1.2 W 7 9 4 5 1017.1 1017.1 0.0
 
Date/Time
EST
Temp
°C
App
Temp
°C
Dew
Point
Rel
Hum
%
Delta-T
°C
Wind Press
QNH
hPa
Press
MSL
hPa
Rain
since 9 am
mm
Dir
 
Spd
km/h
Gust
km/h
Spd
kts
Gust
kts
19/11:30pm 9.6 7.9 7.4 86 1.0 W 6 7 3 4 1017.4 - 0.0
19/11:00pm 10.0 8.1 6.9 81 1.5 W 6 7 3 4 1017.3 - 0.0
19/10:30pm 10.3 8.2 6.6 78 1.7 W 7 9 4 5 1017.2 - 0.0
19/10:00pm 10.9 10.2 7.0 77 1.9 CALM 0 0 0 0 1017.0 - 0.0
19/09:30pm 10.9 9.1 7.0 77 1.9 W 6 7 3 4 1016.9 - 0.0
19/09:00pm 11.4 10.6 6.7 73 2.2 CALM 0 6 0 3 1016.8 1016.8 0.0
19/08:30pm 12.2 11.4 6.7 69 2.6 CALM 0 0 0 0 1016.6 - 0.0
19/08:00pm 12.3 10.5 7.2 71 2.5 W 6 7 3 4 1016.4 - 0.0
19/07:30pm 13.2 11.4 7.2 67 2.9 W 6 7 3 4 1016.0 - 0.0
19/07:00pm 16.1 13.9 6.0 51 4.9 W 7 9 4 5 1015.6 - 0.0
19/06:30pm 18.4 15.4 5.9 44 6.1 WSW 11 15 6 8 1015.0 - 0.0
19/06:00pm 19.1 15.7 5.9 42 6.5 W 13 17 7 9 1014.6 1014.6 0.0
19/05:30pm 20.6 15.9 5.0 36 7.6 WSW 19 24 10 13 1014.1 - 0.0
19/05:00pm 21.5 16.9 5.8 36 7.9 W 19 26 10 14 1013.6 - 0.0
19/04:30pm 22.0 16.7 5.0 33 8.4 W 22 30 12 16 1013.0 - 0.0
19/04:00pm 22.2 16.3 5.6 34 8.3 W 26 35 14 19 1012.8 - 0.0

Other Formats:

Comma delimited format used in spreadsheet applications
http://www.bom.gov.au/fwo/IDQ60801/IDQ60801.94567.axf

JavaScript Object Notation format (JSON) in row-major order
http://www.bom.gov.au/fwo/IDQ60801/IDQ60801.94567.json